createdAt,value
2022-10-06T00:01:31.116Z,4.03
2022-10-06T00:03:57.756Z,5.57
2022-10-06T00:06:24.270Z,2.15
2022-10-06T00:08:50.853Z,3.55
2022-10-06T00:11:17.491Z,3.97
2022-10-06T00:13:44.737Z,2.97
2022-10-06T00:16:15.383Z,4.13
2022-10-06T00:18:42.794Z,6.63
2022-10-06T00:21:09.356Z,6.53
2022-10-06T00:23:36.293Z,3.17
2022-10-06T00:26:02.908Z,4.63
2022-10-06T00:28:29.849Z,5.15
2022-10-06T00:31:01.131Z,4.22
2022-10-06T00:33:29.189Z,3.05
2022-10-06T00:35:57.039Z,4.47
2022-10-06T00:38:23.821Z,5.20
2022-10-06T00:40:51.441Z,4.35
2022-10-06T00:43:41.457Z,3.63
2022-10-06T00:46:11.195Z,1.92
2022-10-06T00:48:39.761Z,4.88
2022-10-06T00:51:06.471Z,4.18
2022-10-06T00:53:33.452Z,4.38
2022-10-06T00:55:59.990Z,4.72
2022-10-06T00:58:26.952Z,4.15
2022-10-06T01:00:55.142Z,4.15
2022-10-06T01:03:26.406Z,5.45
2022-10-06T01:05:56.002Z,3.20
2022-10-06T01:08:23.513Z,4.55
2022-10-06T01:10:50.179Z,6.78
2022-10-06T01:13:18.184Z,8.05
2022-10-06T01:15:50.299Z,5.50
2022-10-06T01:18:21.877Z,7.57
2022-10-06T01:20:52.689Z,4.50
2022-10-06T01:23:21.117Z,6.10
2022-10-06T01:25:47.769Z,4.63
2022-10-06T01:28:14.872Z,5.88
2022-10-06T01:30:46.463Z,8.65
2022-10-06T01:33:14.109Z,6.43
2022-10-06T01:35:41.460Z,4.75
2022-10-06T01:38:08.074Z,4.72
2022-10-06T01:40:36.533Z,9.13
2022-10-06T01:43:03.242Z,8.00
2022-10-06T01:45:30.005Z,6.82
2022-10-06T01:47:56.650Z,4.38
2022-10-06T01:50:23.324Z,7.57
2022-10-06T01:52:49.946Z,7.18
2022-10-06T01:55:16.650Z,5.93
2022-10-06T01:57:44.696Z,6.80
2022-10-06T02:00:13.381Z,5.35
2022-10-06T02:02:41.893Z,12.07
2022-10-06T02:05:09.073Z,6.05
2022-10-06T02:07:39.040Z,6.05
2022-10-06T02:10:06.671Z,9.77
2022-10-06T02:12:33.832Z,7.10
2022-10-06T02:15:01.816Z,7.78
2022-10-06T02:17:29.144Z,8.32
2022-10-06T02:19:55.798Z,7.13
2022-10-06T02:22:22.473Z,8.45
2022-10-06T02:24:48.983Z,5.97
2022-10-06T02:27:15.677Z,7.25
2022-10-06T02:29:42.262Z,5.07
2022-10-06T02:32:10.644Z,5.93
2022-10-06T02:34:37.208Z,5.07
2022-10-06T02:37:03.976Z,6.07
2022-10-06T02:39:30.515Z,7.75
2022-10-06T02:41:57.286Z,8.75
2022-10-06T02:44:24.347Z,9.95
2022-10-06T02:46:53.718Z,6.68
2022-10-06T02:49:21.843Z,10.77
2022-10-06T02:51:49.112Z,6.88
2022-10-06T02:54:16.044Z,9.48
2022-10-06T02:56:42.896Z,13.07
2022-10-06T02:59:09.504Z,7.25
2022-10-06T03:01:37.508Z,6.10
2022-10-06T03:04:09.882Z,7.72
2022-10-06T03:06:37.879Z,5.75
2022-10-06T03:09:22.478Z,5.15
2022-10-06T03:11:50.899Z,8.07
2022-10-06T03:14:25.554Z,4.32
2022-10-06T03:16:52.562Z,5.70
2022-10-06T03:19:23.496Z,9.23
2022-10-06T03:21:51.559Z,9.23
2022-10-06T03:24:18.404Z,7.60
2022-10-06T03:26:49.363Z,13.52
2022-10-06T03:29:18.047Z,6.95
2022-10-06T03:31:50.223Z,7.95
2022-10-06T03:34:17.024Z,7.95
2022-10-06T03:36:45.346Z,8.45
2022-10-06T03:39:13.993Z,6.95
2022-10-06T03:41:40.897Z,10.30
2022-10-06T03:44:09.253Z,8.10
2022-10-06T03:46:38.452Z,11.38
2022-10-06T03:49:07.297Z,9.35
2022-10-06T03:51:36.213Z,7.18
2022-10-06T03:54:03.524Z,9.73
2022-10-06T03:56:34.993Z,10.45
2022-10-06T03:59:03.837Z,9.63
2022-10-06T04:01:34.197Z,8.60
2022-10-06T04:04:04.228Z,10.00
2022-10-06T04:06:33.357Z,8.52
2022-10-06T04:09:00.289Z,7.97
2022-10-06T04:11:29.629Z,10.75
2022-10-06T04:13:59.705Z,10.13
2022-10-06T04:16:29.388Z,10.77
2022-10-06T04:18:57.729Z,12.40
2022-10-06T04:21:25.621Z,11.27
2022-10-06T04:23:53.251Z,9.73
2022-10-06T04:26:22.191Z,10.05
2022-10-06T04:28:51.677Z,9.20
2022-10-06T04:31:21.769Z,10.07
2022-10-06T04:33:51.876Z,11.55
2022-10-06T04:36:20.358Z,8.10
2022-10-06T04:38:46.988Z,8.82
2022-10-06T04:41:16.087Z,12.07
2022-10-06T04:43:45.037Z,9.32
2022-10-06T04:46:30.675Z,9.50
2022-10-06T04:49:00.466Z,9.63
2022-10-06T04:51:29.932Z,10.25
2022-10-06T04:53:58.283Z,9.35
2022-10-06T04:56:28.490Z,12.30
2022-10-06T04:58:57.866Z,10.82
2022-10-06T05:01:27.308Z,10.35
2022-10-06T05:03:56.201Z,8.63
2022-10-06T05:06:26.061Z,13.40
2022-10-06T05:08:54.270Z,12.05
2022-10-06T05:11:25.651Z,11.43
2022-10-06T05:13:56.206Z,9.35
2022-10-06T05:16:25.627Z,13.82
2022-10-06T05:18:52.955Z,9.57
2022-10-06T05:21:21.541Z,11.35
2022-10-06T05:23:50.253Z,13.48
2022-10-06T05:26:18.922Z,12.63
2022-10-06T05:28:45.730Z,15.05
2022-10-06T05:31:16.793Z,9.75
2022-10-06T05:33:43.973Z,11.77
2022-10-06T05:36:14.212Z,9.18
2022-10-06T05:38:41.531Z,13.23
2022-10-06T05:41:12.277Z,12.02
2022-10-06T05:43:39.463Z,12.10
2022-10-06T05:46:08.529Z,16.80
2022-10-06T05:48:35.320Z,11.40
2022-10-06T05:51:04.898Z,12.05
2022-10-06T05:53:34.449Z,9.45
2022-10-06T05:56:06.464Z,13.35
2022-10-06T05:58:35.914Z,9.38
2022-10-06T06:01:07.669Z,11.80
2022-10-06T06:03:34.448Z,8.75
2022-10-06T06:06:01.155Z,11.77
2022-10-06T06:08:28.638Z,9.40
2022-10-06T06:10:55.549Z,12.73
2022-10-06T06:13:22.694Z,18.98
2022-10-06T06:16:07.581Z,13.35
2022-10-06T06:18:37.140Z,11.17
2022-10-06T06:21:07.290Z,13.60
2022-10-06T06:23:36.281Z,14.95
2022-10-06T06:26:04.960Z,12.50
2022-10-06T06:28:34.997Z,13.20
2022-10-06T06:31:04.990Z,13.38
2022-10-06T06:33:32.248Z,14.27
2022-10-06T06:35:59.076Z,13.07
2022-10-06T06:38:25.680Z,10.55
2022-10-06T06:40:52.312Z,12.60
2022-10-06T06:43:18.986Z,16.95
2022-10-06T06:46:24.459Z,12.70
2022-10-06T06:49:00.271Z,16.90
2022-10-06T06:51:27.079Z,10.80
2022-10-06T06:53:54.020Z,10.30
2022-10-06T06:56:21.064Z,14.52
2022-10-06T06:58:47.817Z,14.88
2022-10-06T07:01:16.417Z,12.20
2022-10-06T07:04:02.602Z,14.00
2022-10-06T07:06:32.714Z,15.75
2022-10-06T07:09:01.549Z,17.38
2022-10-06T07:11:31.073Z,11.85
2022-10-06T07:14:00.578Z,15.25
2022-10-06T07:16:28.459Z,12.57
2022-10-06T07:18:56.543Z,10.32
2022-10-06T07:21:23.135Z,16.63
2022-10-06T07:23:51.794Z,15.27
2022-10-06T07:26:20.433Z,18.90
2022-10-06T07:28:47.985Z,10.38
2022-10-06T07:31:17.281Z,13.15
2022-10-06T07:33:44.342Z,13.73
2022-10-06T07:36:12.210Z,11.43
2022-10-06T07:38:39.533Z,16.92
2022-10-06T07:41:19.032Z,13.40
2022-10-06T07:43:58.885Z,17.67
2022-10-06T07:46:28.084Z,13.55
2022-10-06T07:49:17.058Z,15.73
2022-10-06T07:51:45.119Z,11.18
2022-10-06T07:54:11.733Z,13.65
2022-10-06T07:57:17.187Z,10.25
2022-10-06T07:59:43.846Z,13.23
2022-10-06T08:02:10.583Z,14.05
2022-10-06T08:04:37.515Z,12.88
2022-10-06T08:07:05.419Z,11.18
2022-10-06T08:09:32.133Z,9.27
2022-10-06T08:11:58.850Z,10.43
2022-10-06T08:14:25.483Z,18.58
2022-10-06T08:16:52.486Z,13.80
2022-10-06T08:19:19.072Z,13.52
2022-10-06T08:21:45.622Z,13.32
2022-10-06T08:24:13.761Z,11.63
2022-10-06T08:26:40.302Z,11.43
2022-10-06T08:29:06.869Z,13.70
2022-10-06T08:31:33.510Z,9.50
2022-10-06T08:34:00.254Z,11.23
2022-10-06T08:36:31.286Z,9.02
2022-10-06T08:38:58.297Z,12.13
2022-10-06T08:41:27.984Z,14.18
2022-10-06T08:44:01.888Z,10.45
2022-10-06T08:46:34.667Z,16.23
2022-10-06T08:49:01.696Z,11.15
2022-10-06T08:51:43.737Z,8.73
2022-10-06T08:54:14.613Z,8.65
2022-10-06T08:56:52.982Z,9.27
2022-10-06T08:59:20.614Z,7.22
2022-10-06T09:01:49.198Z,10.05
2022-10-06T09:04:24.294Z,12.25
2022-10-06T09:06:59.414Z,11.50
2022-10-06T09:09:44.695Z,7.68
2022-10-06T09:12:19.278Z,7.30
2022-10-06T09:14:51.575Z,8.32
2022-10-06T09:17:26.361Z,9.30
2022-10-06T09:19:57.934Z,10.57
2022-10-06T09:22:28.810Z,9.20
2022-10-06T09:24:59.450Z,9.50
2022-10-06T09:27:32.069Z,5.18
2022-10-06T09:29:59.156Z,7.35
2022-10-06T09:32:28.275Z,6.05
2022-10-06T09:34:56.907Z,5.57
2022-10-06T09:37:23.786Z,7.72
2022-10-06T09:39:51.765Z,5.75
2022-10-06T09:42:21.323Z,6.18
2022-10-06T09:45:00.704Z,6.82
2022-10-06T09:47:39.582Z,8.18
2022-10-06T09:50:15.691Z,6.72
2022-10-06T09:52:44.085Z,8.75
2022-10-06T09:55:12.696Z,9.95
2022-10-06T09:57:47.687Z,7.18
2022-10-06T10:00:29.337Z,5.32
2022-10-06T10:05:24.492Z,4.68
2022-10-06T10:08:01.414Z,5.35
2022-10-06T10:10:28.076Z,4.95
2022-10-06T10:12:58.977Z,6.47
2022-10-06T10:15:30.095Z,5.10
2022-10-06T10:17:58.721Z,7.47
2022-10-06T10:20:29.914Z,6.25
2022-10-06T10:22:59.781Z,10.13
2022-10-06T10:25:47.193Z,6.10
2022-10-06T10:28:29.375Z,3.53
2022-10-06T10:31:03.463Z,5.85
2022-10-06T10:33:39.762Z,6.60
2022-10-06T10:36:10.562Z,4.88
2022-10-06T10:38:39.915Z,3.92
2022-10-06T10:41:13.414Z,6.40
2022-10-06T10:43:48.717Z,5.07
2022-10-06T10:46:23.725Z,5.07
2022-10-06T10:48:55.326Z,6.38
2022-10-06T10:51:27.472Z,3.03
2022-10-06T10:54:01.026Z,3.75
2022-10-06T10:56:31.401Z,7.28
2022-10-06T10:59:05.346Z,5.47
2022-10-06T11:01:39.440Z,3.55
2022-10-06T11:04:11.114Z,4.00
2022-10-06T11:06:49.763Z,5.13
2022-10-06T11:09:19.312Z,2.92
2022-10-06T11:11:58.596Z,3.65
2022-10-06T11:14:44.985Z,5.22
2022-10-06T11:17:24.761Z,10.00
2022-10-06T11:19:57.629Z,5.97
2022-10-06T11:22:35.184Z,6.35
2022-10-06T11:25:15.306Z,3.42
2022-10-06T11:27:50.407Z,3.90
2022-10-06T11:30:19.806Z,4.32
2022-10-06T11:32:56.104Z,3.65
2022-10-06T11:35:27.637Z,4.43
2022-10-06T11:38:00.863Z,5.32
2022-10-06T11:40:55.218Z,5.97
2022-10-06T11:43:31.444Z,3.50
2022-10-06T11:46:06.055Z,3.67
2022-10-06T11:48:34.374Z,4.43
2022-10-06T11:51:28.570Z,5.22
2022-10-06T11:53:55.423Z,4.22
2022-10-06T11:56:42.721Z,3.72
2022-10-06T11:59:24.018Z,5.53
2022-10-06T12:04:24.356Z,2.42
2022-10-06T12:06:59.566Z,3.38
2022-10-06T12:09:52.274Z,4.90
2022-10-06T12:13:01.937Z,3.58
2022-10-06T12:18:44.410Z,2.63
2022-10-06T12:21:22.731Z,4.63
2022-10-06T12:24:00.173Z,3.47
2022-10-06T12:26:37.394Z,3.10
2022-10-06T12:29:25.383Z,2.80
2022-10-06T12:32:02.246Z,2.40
2022-10-06T12:34:42.791Z,3.40
2022-10-06T12:37:36.790Z,4.20
2022-10-06T12:40:40.963Z,3.55
2022-10-06T12:43:26.482Z,3.20
2022-10-06T12:45:57.350Z,3.42
2022-10-06T12:48:30.781Z,3.95
2022-10-06T12:51:04.637Z,2.28
2022-10-06T12:53:39.834Z,3.65
2022-10-06T12:56:19.135Z,3.90
2022-10-06T12:58:45.771Z,2.65
2022-10-06T13:01:13.300Z,2.97
2022-10-06T13:03:40.085Z,2.80
2022-10-06T13:06:08.712Z,3.13
2022-10-06T13:08:38.415Z,3.20
2022-10-06T13:11:13.735Z,3.80
2022-10-06T13:13:46.609Z,4.60
2022-10-06T13:16:13.884Z,4.00
2022-10-06T13:18:40.802Z,4.13
2022-10-06T13:21:12.572Z,6.90
2022-10-06T13:23:40.635Z,4.10
2022-10-06T13:26:15.523Z,2.47
2022-10-06T13:28:47.110Z,2.95
2022-10-06T13:31:19.673Z,2.17
2022-10-06T13:33:49.714Z,3.53
2022-10-06T13:36:17.518Z,7.85
2022-10-06T13:38:45.464Z,4.93
2022-10-06T13:41:21.206Z,3.22
2022-10-06T13:43:51.650Z,3.55
2022-10-06T13:46:21.550Z,4.05
2022-10-06T13:48:51.083Z,1.90
2022-10-06T13:51:21.241Z,5.05
2022-10-06T13:53:49.932Z,2.97
2022-10-06T13:56:32.451Z,5.25
2022-10-06T13:59:28.644Z,3.22
2022-10-06T14:01:56.107Z,4.22
2022-10-06T14:04:22.775Z,3.47
2022-10-06T14:06:52.524Z,3.22
2022-10-06T14:09:24.972Z,4.32
2022-10-06T14:11:53.197Z,4.90
2022-10-06T14:14:20.095Z,4.45
2022-10-06T14:16:50.369Z,3.90
2022-10-06T14:19:31.505Z,4.20
2022-10-06T14:22:00.538Z,2.92
2022-10-06T14:24:28.652Z,3.40
2022-10-06T14:27:01.129Z,3.85
2022-10-06T14:29:27.840Z,2.83
2022-10-06T14:31:54.641Z,4.25
2022-10-06T14:34:21.802Z,3.45
2022-10-06T14:36:50.732Z,3.33
2022-10-06T14:39:17.823Z,4.15
2022-10-06T14:41:45.765Z,2.83
2022-10-06T14:44:13.132Z,2.55
2022-10-06T14:46:41.364Z,3.03
2022-10-06T14:49:10.101Z,3.67
2022-10-06T14:51:38.482Z,5.18
2022-10-06T14:54:06.283Z,2.65
2022-10-06T14:56:34.683Z,3.67
2022-10-06T14:59:04.398Z,3.38
2022-10-06T15:01:33.378Z,4.95
2022-10-06T15:04:02.370Z,3.10
2022-10-06T15:06:29.427Z,2.72
2022-10-06T15:08:57.603Z,3.85
2022-10-06T15:11:26.393Z,5.00
2022-10-06T15:13:54.027Z,4.22
2022-10-06T15:16:22.025Z,2.85
2022-10-06T15:18:48.991Z,3.72
2022-10-06T15:21:15.992Z,2.90
2022-10-06T15:23:42.544Z,2.65
2022-10-06T15:26:10.552Z,2.72
2022-10-06T15:28:37.119Z,2.45
2022-10-06T15:31:03.776Z,3.40
2022-10-06T15:33:31.722Z,3.70
2022-10-06T15:36:15.604Z,3.58
2022-10-06T15:38:42.732Z,3.60
2022-10-06T15:41:09.583Z,4.43
2022-10-06T15:43:36.326Z,6.28
2022-10-06T15:46:02.911Z,3.67
2022-10-06T15:48:29.487Z,2.75
2022-10-06T15:50:57.458Z,3.88
2022-10-06T15:53:24.087Z,2.90
2022-10-06T15:55:50.646Z,4.10
2022-10-06T16:26:29.223Z,2.40
2022-10-06T16:28:55.997Z,2.10
2022-10-06T16:31:22.992Z,4.22
2022-10-06T16:33:50.174Z,3.25
2022-10-06T16:36:17.761Z,2.60
2022-10-06T16:38:44.636Z,5.25
2022-10-06T16:41:11.530Z,2.45
2022-10-06T16:43:40.925Z,2.88
2022-10-06T16:46:09.514Z,2.72
2022-10-06T16:48:38.313Z,2.90
2022-10-06T16:51:06.525Z,4.05
2022-10-06T16:53:34.576Z,2.67
2022-10-06T16:56:01.134Z,4.47
2022-10-06T16:58:27.718Z,1.38
2022-10-06T17:00:58.814Z,3.55
2022-10-06T17:03:25.522Z,12.05
2022-10-06T17:05:52.056Z,2.25
2022-10-06T17:08:21.920Z,3.33
2022-10-06T17:10:59.226Z,4.00
2022-10-06T17:13:25.968Z,6.55
2022-10-06T17:15:59.513Z,4.88
2022-10-06T17:18:26.435Z,6.95
2022-10-06T17:20:54.576Z,5.88
2022-10-06T17:23:21.390Z,6.57
2022-10-06T17:25:47.994Z,5.53
2022-10-06T17:28:14.629Z,6.40
2022-10-06T17:30:51.266Z,5.88
2022-10-06T17:33:19.468Z,6.53
2022-10-06T17:35:45.986Z,4.72
2022-10-06T17:38:12.739Z,6.05
2022-10-06T17:40:43.364Z,3.20
2022-10-06T17:43:10.302Z,4.55
2022-10-06T17:45:37.918Z,3.65
2022-10-06T17:48:05.047Z,2.95
2022-10-06T17:50:33.199Z,4.35
2022-10-06T17:53:00.139Z,5.50
2022-10-06T17:55:26.664Z,3.97
2022-10-06T17:57:53.407Z,4.22
2022-10-06T18:00:20.109Z,2.42
2022-10-06T18:02:46.791Z,3.47
2022-10-06T18:05:13.564Z,2.42
2022-10-06T18:07:41.522Z,3.05
2022-10-06T18:10:08.367Z,2.63
2022-10-06T18:12:34.933Z,3.10
2022-10-06T18:15:01.586Z,5.40
2022-10-06T18:17:28.154Z,4.43
2022-10-06T18:19:54.663Z,5.22
2022-10-06T18:22:21.222Z,5.80
2022-10-06T18:24:49.103Z,3.20
2022-10-06T18:27:15.691Z,7.45
2022-10-06T18:29:42.205Z,4.85
2022-10-06T18:33:19.329Z,5.65
2022-10-06T18:37:42.272Z,3.72
2022-10-06T18:40:11.509Z,5.03
2022-10-06T18:42:38.234Z,2.97
2022-10-06T18:45:06.073Z,4.35
2022-10-06T18:47:32.691Z,5.72
2022-10-06T18:49:59.243Z,3.45
2022-10-06T18:52:25.883Z,4.00
2022-10-06T18:54:52.559Z,2.28
2022-10-06T18:57:25.078Z,4.85
2022-10-06T18:59:53.950Z,5.88
2022-10-06T19:02:20.493Z,6.20
2022-10-06T19:04:47.064Z,3.92
2022-10-06T19:07:13.738Z,4.13
2022-10-06T19:09:45.339Z,3.75
2022-10-06T19:12:13.331Z,3.78
2022-10-06T19:14:41.404Z,4.90
2022-10-06T19:17:09.516Z,10.90
2022-10-06T19:19:36.073Z,3.42
2022-10-06T19:22:04.627Z,3.83
2022-10-06T19:24:35.557Z,4.72
2022-10-06T19:27:03.238Z,3.92
2022-10-06T19:29:29.787Z,4.45
2022-10-06T19:31:58.815Z,5.70
2022-10-06T19:34:26.146Z,5.65
2022-10-06T19:36:52.967Z,5.13
2022-10-06T19:39:22.317Z,3.47
2022-10-06T19:41:49.820Z,8.52
2022-10-06T19:44:17.198Z,6.35
2022-10-06T19:46:43.785Z,4.45
2022-10-06T19:49:11.798Z,5.55
2022-10-06T19:51:39.443Z,5.63
2022-10-06T19:54:06.025Z,4.05
2022-10-06T19:56:32.685Z,5.40
2022-10-06T19:58:59.577Z,5.97
2022-10-06T20:01:26.531Z,3.67
2022-10-06T20:03:53.325Z,6.78
2022-10-06T20:06:21.863Z,5.25
2022-10-06T20:08:48.446Z,3.17
2022-10-06T20:11:17.726Z,7.38
2022-10-06T20:13:45.126Z,5.20
2022-10-06T20:16:13.679Z,5.32
2022-10-06T20:18:42.095Z,3.72
2022-10-06T20:21:13.488Z,5.60
2022-10-06T20:23:41.440Z,3.70
2022-10-06T20:26:10.015Z,10.38
2022-10-06T20:28:36.666Z,6.78
2022-10-06T20:31:03.505Z,3.50
2022-10-06T20:33:33.382Z,6.57
2022-10-06T20:36:01.106Z,6.50
2022-10-06T20:38:27.791Z,4.75
2022-10-06T20:40:55.689Z,4.32
2022-10-06T20:43:22.240Z,5.85
2022-10-06T20:45:48.831Z,5.40
2022-10-06T20:48:15.490Z,6.35
2022-10-06T20:50:42.075Z,4.85
2022-10-06T20:53:08.649Z,6.45
2022-10-06T20:55:35.195Z,6.20
2022-10-06T20:58:03.263Z,4.22
2022-10-06T21:00:30.015Z,4.75
2022-10-06T21:02:56.606Z,8.20
2022-10-06T21:05:23.258Z,4.78
2022-10-06T21:07:49.797Z,6.22
2022-10-06T21:10:16.573Z,7.00
2022-10-06T21:12:43.096Z,4.53
2022-10-06T21:15:11.149Z,6.32
2022-10-06T21:17:37.702Z,10.85
2022-10-06T21:20:05.090Z,8.75
2022-10-06T21:22:31.632Z,9.30
2022-10-06T21:24:58.229Z,6.80
2022-10-06T21:27:24.870Z,7.05
2022-10-06T21:29:51.545Z,4.72
2022-10-06T21:32:19.645Z,7.55
2022-10-06T21:34:46.176Z,7.88
2022-10-06T21:37:12.699Z,7.07
2022-10-06T21:39:39.359Z,7.35
2022-10-06T21:42:05.971Z,8.55
2022-10-06T21:44:32.560Z,9.73
2022-10-06T21:46:59.221Z,4.90
2022-10-06T21:49:27.164Z,8.80
2022-10-06T21:51:55.861Z,8.80
2022-10-06T21:54:23.214Z,8.45
2022-10-06T21:56:50.144Z,9.55
2022-10-06T21:59:17.886Z,5.97
2022-10-06T22:01:46.617Z,7.72
2022-10-06T22:04:14.524Z,6.63
2022-10-06T22:06:44.114Z,5.88
2022-10-06T22:09:15.019Z,8.10
2022-10-06T22:11:42.106Z,10.90
2022-10-06T22:14:11.268Z,9.32
2022-10-06T22:16:38.668Z,9.75
2022-10-06T22:19:07.558Z,8.57
2022-10-06T22:21:36.180Z,12.18
2022-10-06T22:24:06.176Z,8.05
2022-10-06T22:26:34.708Z,9.13
2022-10-06T22:29:01.429Z,8.07
2022-10-06T22:31:28.722Z,7.13
2022-10-06T22:33:58.472Z,8.40
2022-10-06T22:36:26.520Z,9.40
2022-10-06T22:38:54.854Z,8.52
2022-10-06T22:41:24.487Z,7.60
2022-10-06T22:43:54.660Z,13.05
2022-10-06T22:46:21.886Z,11.38
2022-10-06T22:48:49.985Z,7.90
2022-10-06T22:51:17.392Z,11.10
2022-10-06T22:53:44.726Z,8.75
2022-10-06T22:56:12.858Z,9.38
2022-10-06T22:58:42.815Z,7.97
2022-10-06T23:01:12.736Z,11.35
2022-10-06T23:03:39.758Z,12.23
2022-10-06T23:06:07.786Z,5.88
2022-10-06T23:08:35.426Z,7.20
2022-10-06T23:11:06.509Z,6.88
2022-10-06T23:13:33.456Z,12.48
2022-10-06T23:16:07.793Z,12.77
2022-10-06T23:18:36.632Z,9.40
2022-10-06T23:21:04.304Z,9.80
2022-10-06T23:23:31.416Z,8.02
2022-10-06T23:26:03.358Z,12.45
2022-10-06T23:28:30.298Z,11.63
2022-10-06T23:30:57.240Z,9.68
2022-10-06T23:33:25.287Z,12.52
2022-10-06T23:35:58.871Z,9.48
2022-10-06T23:38:26.139Z,13.45
2022-10-06T23:40:52.984Z,10.68
2022-10-06T23:43:20.256Z,8.77
2022-10-06T23:45:46.964Z,11.07
2022-10-06T23:48:13.831Z,6.47
2022-10-06T23:50:42.137Z,5.93
2022-10-06T23:53:09.099Z,6.20
2022-10-06T23:55:35.824Z,8.80
2022-10-06T23:58:02.620Z,10.80
